createdAt,value
2022-10-05T00:01:46.330Z,78.30
2022-10-05T00:04:15.822Z,78.50
2022-10-05T00:06:44.201Z,78.64
2022-10-05T00:09:14.069Z,78.70
2022-10-05T00:11:40.535Z,78.17
2022-10-05T00:14:19.213Z,79.37
2022-10-05T00:16:46.716Z,78.29
2022-10-05T00:19:21.602Z,78.63
2022-10-05T00:21:48.165Z,79.47
2022-10-05T00:24:18.963Z,79.90
2022-10-05T00:26:45.823Z,79.80
2022-10-05T00:29:23.003Z,79.40
2022-10-05T00:31:50.285Z,79.54
2022-10-05T00:34:17.139Z,79.35
2022-10-05T00:36:44.384Z,79.28
2022-10-05T00:39:11.273Z,79.92
2022-10-05T00:42:00.309Z,79.62
2022-10-05T00:44:40.398Z,80.35
2022-10-05T00:47:14.742Z,79.52
2022-10-05T00:49:52.281Z,79.73
2022-10-05T00:52:40.678Z,78.86
2022-10-05T00:55:30.352Z,78.64
2022-10-05T00:58:10.427Z,78.19
2022-10-05T01:00:40.060Z,78.37
2022-10-05T01:03:26.200Z,78.52
2022-10-05T01:06:16.204Z,78.31
2022-10-05T01:09:25.333Z,78.13
2022-10-05T01:12:14.075Z,78.12
2022-10-05T01:14:43.604Z,78.58
2022-10-05T01:17:25.030Z,78.70
2022-10-05T01:20:04.686Z,78.73
2022-10-05T01:22:56.166Z,78.57
2022-10-05T01:25:34.896Z,78.47
2022-10-05T01:28:15.835Z,78.22
2022-10-05T01:31:08.689Z,77.57
2022-10-05T01:33:53.797Z,77.67
2022-10-05T01:36:49.332Z,78.12
2022-10-05T01:39:15.941Z,78.81
2022-10-05T01:41:54.813Z,78.18
2022-10-05T01:44:26.167Z,78.61
2022-10-05T01:47:00.192Z,78.29
2022-10-05T01:49:29.856Z,78.71
2022-10-05T01:52:14.592Z,77.81
2022-10-05T01:54:58.681Z,77.80
2022-10-05T01:57:59.312Z,77.69
2022-10-05T02:00:26.614Z,78.09
2022-10-05T02:03:19.245Z,77.85
2022-10-05T02:05:56.369Z,77.16
2022-10-05T02:08:37.076Z,77.58
2022-10-05T02:11:09.428Z,76.82
2022-10-05T02:13:50.108Z,76.53
2022-10-05T02:16:43.103Z,77.46
2022-10-05T02:19:30.996Z,77.04
2022-10-05T02:22:07.789Z,77.89
2022-10-05T02:24:39.944Z,77.88
2022-10-05T02:27:08.485Z,78.27
2022-10-05T02:29:37.460Z,79.01
2022-10-05T02:32:07.224Z,79.44
2022-10-05T02:34:39.577Z,79.50
2022-10-05T02:37:36.180Z,78.94
2022-10-05T02:40:08.839Z,79.21
2022-10-05T02:42:58.733Z,78.55
2022-10-05T02:45:47.224Z,78.47
2022-10-05T02:48:51.746Z,79.47
2022-10-05T02:51:23.219Z,79.20
2022-10-05T02:54:08.327Z,78.06
2022-10-05T02:56:40.747Z,78.44
2022-10-05T02:59:30.449Z,77.89
2022-10-05T03:02:24.520Z,77.37
2022-10-05T03:05:17.290Z,78.04
2022-10-05T03:07:56.271Z,77.25
2022-10-05T03:10:38.182Z,77.56
2022-10-05T03:13:09.718Z,78.10
2022-10-05T03:16:17.955Z,78.45
2022-10-05T03:19:09.130Z,78.63
2022-10-05T03:21:57.642Z,78.33
2022-10-05T03:24:27.403Z,78.08
2022-10-05T03:27:06.131Z,79.07
2022-10-05T03:29:42.127Z,78.92
2022-10-05T03:32:21.142Z,79.70
2022-10-05T03:34:50.611Z,80.07
2022-10-05T03:37:27.097Z,79.80
2022-10-05T03:40:09.012Z,79.24
2022-10-05T03:42:50.757Z,78.91
2022-10-05T03:45:20.338Z,78.75
2022-10-05T03:47:56.651Z,79.06
2022-10-05T03:50:48.882Z,78.33
2022-10-05T03:53:18.882Z,79.51
2022-10-05T03:56:03.090Z,79.83
2022-10-05T03:58:38.687Z,79.98
2022-10-05T04:01:09.244Z,79.43
2022-10-05T04:03:40.467Z,78.97
2022-10-05T04:06:23.158Z,78.44
2022-10-05T04:09:03.007Z,79.91
2022-10-05T04:11:35.465Z,80.05
2022-10-05T04:14:10.338Z,82.16
2022-10-05T04:16:48.661Z,82.85
2022-10-05T04:19:21.424Z,83.57
2022-10-05T04:22:10.634Z,85.56
2022-10-05T04:24:40.823Z,86.41
2022-10-05T04:27:19.920Z,85.14
2022-10-05T04:30:01.107Z,86.22
2022-10-05T04:32:42.162Z,85.36
2022-10-05T04:35:46.283Z,84.27
2022-10-05T04:38:28.172Z,84.06
2022-10-05T04:41:03.823Z,84.41
2022-10-05T04:43:38.912Z,83.41
2022-10-05T04:46:39.205Z,83.46
2022-10-05T04:49:36.949Z,82.97
2022-10-05T04:52:15.123Z,82.86
2022-10-05T04:54:56.674Z,81.46
2022-10-05T04:57:35.832Z,81.82
2022-10-05T05:00:12.648Z,81.12
2022-10-05T05:02:48.994Z,81.04
2022-10-05T05:05:27.535Z,80.49
2022-10-05T05:07:54.425Z,80.21
2022-10-05T05:10:39.350Z,81.05
2022-10-05T05:13:40.575Z,80.13
2022-10-05T05:16:43.202Z,79.72
2022-10-05T05:19:47.436Z,80.02
2022-10-05T05:22:55.659Z,79.67
2022-10-05T05:25:35.913Z,79.77
2022-10-05T05:28:16.883Z,79.76
2022-10-05T05:30:53.235Z,79.92
2022-10-05T05:33:44.059Z,79.49
2022-10-05T05:36:23.518Z,78.86
2022-10-05T05:38:56.096Z,78.83
2022-10-05T05:41:31.016Z,79.41
2022-10-05T05:44:24.079Z,79.64
2022-10-05T05:47:04.072Z,79.38
2022-10-05T05:49:54.559Z,79.24
2022-10-05T05:52:44.528Z,79.73
2022-10-05T05:55:24.382Z,79.26
2022-10-05T05:58:04.445Z,79.52
2022-10-05T06:00:37.745Z,78.61
2022-10-05T06:03:39.646Z,78.90
2022-10-05T06:06:32.899Z,79.44
2022-10-05T06:09:01.457Z,79.52
2022-10-05T06:11:58.529Z,80.07
2022-10-05T06:14:40.135Z,79.61
2022-10-05T06:17:12.420Z,79.43
2022-10-05T06:19:39.447Z,78.98
2022-10-05T06:22:19.641Z,78.51
2022-10-05T06:24:45.984Z,78.41
2022-10-05T06:27:21.374Z,78.00
2022-10-05T06:29:48.011Z,78.55
2022-10-05T06:32:24.392Z,77.77
2022-10-05T06:34:57.679Z,78.35
2022-10-05T06:37:52.328Z,77.89
2022-10-05T06:40:37.346Z,77.19
2022-10-05T06:43:21.360Z,77.83
2022-10-05T06:46:00.138Z,77.01
2022-10-05T06:48:52.896Z,77.20
2022-10-05T06:51:31.512Z,77.53
2022-10-05T06:54:23.005Z,77.38
2022-10-05T06:56:58.930Z,77.30
2022-10-05T06:59:33.246Z,75.88
2022-10-05T07:02:27.831Z,76.27
2022-10-05T07:05:23.300Z,75.22
2022-10-05T07:08:08.226Z,76.31
2022-10-05T07:10:40.693Z,76.00
2022-10-05T07:13:25.872Z,75.66
2022-10-05T07:16:10.709Z,75.42
2022-10-05T07:19:01.803Z,76.15
2022-10-05T07:21:42.047Z,76.23
2022-10-05T07:24:17.636Z,77.53
2022-10-05T07:26:54.989Z,78.75
2022-10-05T07:29:59.212Z,76.63
2022-10-05T07:32:33.528Z,75.69
2022-10-05T07:35:09.427Z,75.19
2022-10-05T07:37:49.827Z,73.50
2022-10-05T07:40:40.215Z,70.79
2022-10-05T07:43:45.200Z,70.30
2022-10-05T07:46:52.233Z,67.91
2022-10-05T07:49:34.195Z,67.35
2022-10-05T07:52:12.323Z,69.39
2022-10-05T07:54:52.726Z,65.85
2022-10-05T07:57:44.100Z,67.88
2022-10-05T08:00:15.283Z,63.87
2022-10-05T08:02:52.556Z,63.63
2022-10-05T08:05:24.747Z,62.89
2022-10-05T08:07:57.034Z,63.14
2022-10-05T08:10:47.329Z,62.19
2022-10-05T08:13:21.737Z,62.50
2022-10-05T08:15:53.125Z,64.57
2022-10-05T08:18:45.835Z,62.88
2022-10-05T08:21:13.876Z,61.52
2022-10-05T08:23:49.188Z,63.18
2022-10-05T08:26:29.229Z,63.44
2022-10-05T08:29:04.439Z,63.12
2022-10-05T08:31:35.844Z,63.13
2022-10-05T08:34:07.286Z,62.82
2022-10-05T08:36:53.836Z,61.08
2022-10-05T08:39:21.788Z,62.39
2022-10-05T08:41:55.057Z,62.26
2022-10-05T08:44:48.959Z,59.96
2022-10-05T08:47:38.553Z,62.46
2022-10-05T08:50:45.335Z,62.41
2022-10-05T08:53:49.476Z,64.20
2022-10-05T08:56:30.242Z,64.05
2022-10-05T08:59:01.900Z,65.01
2022-10-05T09:01:49.791Z,63.35
2022-10-05T09:04:32.953Z,62.13
2022-10-05T09:07:38.148Z,62.97
2022-10-05T09:10:23.289Z,66.00
2022-10-05T09:12:58.820Z,68.35
2022-10-05T09:15:56.451Z,69.23
2022-10-05T09:18:50.962Z,69.05
2022-10-05T09:21:35.290Z,68.51
2022-10-05T09:24:13.965Z,68.40
2022-10-05T09:27:00.163Z,68.99
2022-10-05T09:29:32.737Z,68.54
2022-10-05T09:32:15.592Z,69.82
2022-10-05T09:34:54.848Z,68.57
2022-10-05T09:37:49.400Z,68.31
2022-10-05T09:40:53.550Z,69.69
2022-10-05T09:44:05.151Z,68.74
2022-10-05T09:47:25.112Z,67.56
2022-10-05T09:50:16.277Z,69.46
2022-10-05T09:52:48.437Z,66.68
2022-10-05T09:55:35.039Z,67.61
2022-10-05T09:58:13.240Z,66.83
2022-10-05T10:01:08.955Z,66.97
2022-10-05T10:03:59.993Z,61.06
2022-10-05T10:06:48.306Z,60.46
2022-10-05T10:09:28.528Z,61.45
2022-10-05T10:12:14.858Z,60.83
2022-10-05T10:15:11.902Z,61.24
2022-10-05T10:18:00.817Z,59.65
2022-10-05T10:20:36.219Z,59.94
2022-10-05T10:23:10.093Z,62.38
2022-10-05T10:26:10.601Z,64.05
2022-10-05T10:29:15.088Z,60.20
2022-10-05T10:31:50.903Z,59.94
2022-10-05T10:35:07.616Z,59.60
2022-10-05T10:37:53.790Z,59.67
2022-10-05T10:40:43.761Z,60.30
2022-10-05T10:43:49.108Z,59.82
2022-10-05T10:46:21.006Z,57.95
2022-10-05T10:49:35.675Z,56.32
2022-10-05T10:52:05.661Z,56.21
2022-10-05T10:54:36.710Z,57.29
2022-10-05T10:57:12.111Z,57.14
2022-10-05T11:00:00.434Z,58.02
2022-10-05T11:02:59.082Z,58.83
2022-10-05T11:06:16.920Z,58.25
2022-10-05T11:08:52.577Z,58.69
2022-10-05T11:11:31.111Z,56.32
2022-10-05T11:14:02.008Z,56.99
2022-10-05T11:16:40.499Z,56.06
2022-10-05T11:19:40.542Z,56.52
2022-10-05T11:22:31.287Z,55.54
2022-10-05T11:25:31.341Z,56.07
2022-10-05T11:28:09.052Z,55.91
2022-10-05T11:30:54.714Z,57.04
2022-10-05T11:34:00.076Z,57.44
2022-10-05T11:37:05.651Z,56.14
2022-10-05T11:39:41.075Z,56.36
2022-10-05T11:42:46.439Z,56.28
2022-10-05T11:45:21.471Z,55.79
2022-10-05T11:48:15.246Z,56.16
2022-10-05T11:51:16.003Z,55.98
2022-10-05T11:54:14.270Z,56.19
2022-10-05T11:56:57.146Z,56.22
2022-10-05T11:59:29.610Z,56.07
2022-10-05T12:02:22.659Z,57.76
2022-10-05T12:05:14.463Z,56.33
2022-10-05T12:07:47.829Z,56.00
2022-10-05T12:10:30.827Z,56.89
2022-10-05T12:12:57.532Z,55.78
2022-10-05T12:15:29.594Z,56.10
2022-10-05T12:18:02.058Z,56.17
2022-10-05T12:20:39.243Z,57.04
2022-10-05T12:23:28.305Z,56.41
2022-10-05T12:26:07.873Z,56.80
2022-10-05T12:28:48.586Z,56.41
2022-10-05T12:31:36.132Z,56.36
2022-10-05T12:34:24.036Z,56.17
2022-10-05T12:37:10.296Z,57.76
2022-10-05T12:40:04.175Z,56.64
2022-10-05T12:43:00.058Z,56.76
2022-10-05T12:45:36.769Z,56.84
2022-10-05T12:48:37.248Z,56.48
2022-10-05T12:51:26.345Z,56.29
2022-10-05T12:54:08.954Z,55.67
2022-10-05T12:56:51.625Z,54.90
2022-10-05T12:59:47.085Z,55.31
2022-10-05T13:02:25.968Z,55.05
2022-10-05T13:05:23.567Z,55.72
2022-10-05T13:08:08.620Z,54.12
2022-10-05T13:11:01.855Z,56.00
2022-10-05T13:13:46.226Z,55.20
2022-10-05T13:16:18.905Z,54.23
2022-10-05T13:19:14.236Z,53.36
2022-10-05T13:21:46.802Z,53.99
2022-10-05T13:24:25.875Z,53.80
2022-10-05T13:26:53.885Z,53.21
2022-10-05T13:29:38.527Z,51.80
2022-10-05T13:32:24.989Z,52.41
2022-10-05T13:35:16.793Z,52.64
2022-10-05T13:38:02.228Z,51.57
2022-10-05T13:40:34.762Z,53.09
2022-10-05T13:43:07.280Z,51.06
2022-10-05T13:46:04.769Z,51.14
2022-10-05T13:48:47.973Z,50.90
2022-10-05T13:51:40.773Z,50.49
2022-10-05T13:54:30.388Z,50.96
2022-10-05T13:56:59.182Z,51.02
2022-10-05T13:59:53.691Z,52.05
2022-10-05T14:02:35.980Z,51.43
2022-10-05T14:05:18.579Z,50.20
2022-10-05T14:07:51.051Z,50.92
2022-10-05T14:10:39.383Z,49.80
2022-10-05T14:13:23.900Z,48.97
2022-10-05T14:16:00.968Z,49.64
2022-10-05T14:18:28.984Z,49.31
2022-10-05T14:21:01.927Z,49.45
2022-10-05T14:23:29.301Z,50.11
2022-10-05T14:25:56.237Z,49.85
2022-10-05T14:28:22.697Z,49.74
2022-10-05T14:31:16.414Z,50.04
2022-10-05T14:33:43.542Z,49.45
2022-10-05T14:36:33.606Z,49.74
2022-10-05T14:39:01.481Z,48.75
2022-10-05T14:41:28.876Z,48.39
2022-10-05T14:44:05.627Z,48.58
2022-10-05T14:46:32.954Z,48.51
2022-10-05T14:49:18.346Z,48.49
2022-10-05T14:51:44.842Z,50.12
2022-10-05T14:54:25.486Z,48.74
2022-10-05T14:57:05.928Z,49.55
2022-10-05T14:59:54.512Z,49.63
2022-10-05T15:02:45.316Z,48.64
2022-10-05T15:05:27.853Z,48.94
2022-10-05T15:08:00.053Z,48.52
2022-10-05T15:10:32.450Z,47.96
2022-10-05T15:13:11.465Z,48.38
2022-10-05T15:15:47.146Z,48.38
2022-10-05T15:18:32.475Z,48.34
2022-10-05T15:21:11.236Z,48.65
2022-10-05T15:23:40.530Z,48.20
2022-10-05T15:26:22.439Z,49.22
2022-10-05T15:29:24.740Z,49.58
2022-10-05T15:32:21.344Z,49.63
2022-10-05T15:35:14.787Z,49.76
2022-10-05T15:37:54.431Z,49.77
2022-10-05T15:40:28.807Z,50.71
2022-10-05T15:43:03.519Z,50.01
2022-10-05T15:45:34.135Z,50.22
2022-10-05T15:48:08.307Z,50.38
2022-10-05T15:50:40.226Z,50.45
2022-10-05T15:53:15.946Z,50.64
2022-10-05T15:55:49.332Z,50.36
2022-10-05T15:58:55.381Z,50.50
2022-10-05T16:01:31.171Z,50.53
2022-10-05T16:04:24.611Z,50.88
2022-10-05T16:06:58.346Z,50.96
2022-10-05T16:09:33.757Z,50.54
2022-10-05T16:12:06.585Z,51.41
2022-10-05T16:14:48.626Z,51.39
2022-10-05T16:18:06.522Z,51.76
2022-10-05T16:20:53.415Z,52.09
2022-10-05T16:23:32.271Z,52.53
2022-10-05T16:26:04.626Z,52.76
2022-10-05T16:29:01.148Z,53.46
2022-10-05T16:31:54.645Z,53.50
2022-10-05T16:34:24.312Z,53.82
2022-10-05T16:37:23.656Z,53.79
2022-10-05T16:40:28.781Z,54.15
2022-10-05T16:43:23.427Z,54.50
2022-10-05T16:46:02.466Z,56.25
2022-10-05T16:48:33.526Z,55.86
2022-10-05T16:51:08.750Z,55.41
2022-10-05T16:53:41.600Z,56.31
2022-10-05T16:56:18.066Z,57.25
2022-10-05T16:59:06.310Z,57.23
2022-10-05T17:01:58.387Z,57.20
2022-10-05T17:04:59.051Z,56.87
2022-10-05T17:07:46.538Z,55.83
2022-10-05T17:10:27.960Z,56.08
2022-10-05T17:12:54.627Z,56.37
2022-10-05T17:15:31.786Z,57.34
2022-10-05T17:18:46.465Z,57.73
2022-10-05T17:21:27.665Z,57.42
2022-10-05T17:23:58.694Z,57.41
2022-10-05T17:26:54.142Z,57.58
2022-10-05T17:29:45.965Z,58.34
2022-10-05T17:32:35.681Z,59.62
2022-10-05T17:35:19.297Z,59.21
2022-10-05T17:38:09.929Z,60.08
2022-10-05T17:40:38.524Z,60.73
2022-10-05T17:43:25.660Z,61.88
2022-10-05T17:45:55.588Z,61.58
2022-10-05T17:48:42.101Z,62.60
2022-10-05T17:51:38.050Z,62.40
2022-10-05T17:54:31.838Z,62.58
2022-10-05T17:56:58.200Z,63.57
2022-10-05T17:59:43.271Z,64.32
2022-10-05T18:02:19.269Z,64.40
2022-10-05T18:05:05.477Z,64.74
2022-10-05T18:07:37.922Z,65.18
2022-10-05T18:10:10.484Z,65.39
2022-10-05T18:12:36.871Z,65.78
2022-10-05T18:15:06.503Z,65.39
2022-10-05T18:17:46.265Z,66.13
2022-10-05T18:20:18.019Z,66.36
2022-10-05T18:22:48.784Z,66.66
2022-10-05T18:25:36.528Z,67.64
2022-10-05T18:28:15.116Z,67.71
2022-10-05T18:31:20.513Z,67.48
2022-10-05T18:33:50.012Z,68.90
2022-10-05T18:36:28.016Z,69.18
2022-10-05T18:39:13.397Z,69.47
2022-10-05T18:42:05.486Z,69.73
2022-10-05T18:44:39.609Z,70.30
2022-10-05T18:47:11.329Z,70.14
2022-10-05T18:49:59.565Z,70.10
2022-10-05T18:52:51.096Z,70.66
2022-10-05T18:55:36.059Z,70.60
2022-10-05T18:58:26.296Z,71.27
2022-10-05T19:01:13.879Z,71.32
2022-10-05T19:03:51.550Z,71.62
2022-10-05T19:06:30.970Z,71.87
2022-10-05T19:09:18.807Z,71.37
2022-10-05T19:11:51.162Z,71.45
2022-10-05T19:14:46.869Z,72.31
2022-10-05T19:17:13.299Z,70.76
2022-10-05T19:19:59.978Z,71.04
2022-10-05T19:22:44.106Z,70.76
2022-10-05T19:25:53.922Z,71.30
2022-10-05T19:28:23.156Z,71.73
2022-10-05T19:31:03.108Z,71.66
2022-10-05T19:33:29.520Z,71.84
2022-10-05T19:36:12.706Z,72.82
2022-10-05T19:39:17.628Z,73.05
2022-10-05T19:42:03.390Z,73.43
2022-10-05T19:44:54.583Z,73.41
2022-10-05T19:47:29.768Z,73.14
2022-10-05T19:49:56.323Z,72.57
2022-10-05T19:52:28.214Z,72.43
2022-10-05T19:55:06.952Z,73.64
2022-10-05T19:57:33.475Z,73.11
2022-10-05T20:00:01.154Z,73.51
2022-10-05T20:02:28.297Z,73.68
2022-10-05T20:05:06.042Z,74.50
2022-10-05T20:07:35.275Z,74.67
2022-10-05T20:10:28.554Z,75.62
2022-10-05T20:12:59.217Z,75.47
2022-10-05T20:15:33.671Z,76.34
2022-10-05T20:18:38.005Z,76.36
2022-10-05T20:21:04.587Z,77.63
2022-10-05T20:23:32.199Z,77.28
2022-10-05T20:25:58.644Z,77.35
2022-10-05T20:28:32.168Z,76.95
2022-10-05T20:30:59.581Z,78.58
2022-10-05T20:33:26.901Z,79.12
2022-10-05T20:35:53.367Z,78.36
2022-10-05T20:38:20.550Z,79.23
2022-10-05T20:40:47.240Z,78.81
2022-10-05T20:43:13.893Z,78.15
2022-10-05T20:45:40.743Z,79.40
2022-10-05T20:48:07.432Z,78.94
2022-10-05T20:50:34.054Z,79.28
2022-10-05T20:53:01.029Z,79.66
2022-10-05T20:55:27.489Z,80.04
2022-10-05T20:57:54.088Z,79.99
2022-10-05T21:00:20.534Z,80.39
2022-10-05T21:02:47.022Z,81.40
2022-10-05T21:05:13.586Z,81.47
2022-10-05T21:07:40.294Z,82.71
2022-10-05T21:10:07.252Z,82.71
2022-10-05T21:12:33.738Z,83.05
2022-10-05T21:15:00.380Z,84.00
2022-10-05T21:17:27.046Z,82.88
2022-10-05T21:19:53.544Z,82.60
2022-10-05T21:22:20.101Z,83.88
2022-10-05T21:24:46.736Z,83.32
2022-10-05T21:27:13.375Z,82.91
2022-10-05T21:29:40.165Z,82.79
2022-10-05T21:32:07.134Z,83.74
2022-10-05T21:34:33.639Z,83.75
2022-10-05T21:37:00.436Z,83.75
2022-10-05T21:39:26.939Z,83.62
2022-10-05T21:41:53.408Z,84.88
2022-10-05T21:44:20.036Z,86.04
2022-10-05T21:46:46.957Z,86.34
2022-10-05T21:49:16.190Z,85.61
2022-10-05T21:51:46.358Z,85.19
2022-10-05T21:54:15.675Z,85.05
2022-10-05T21:56:47.027Z,84.89
2022-10-05T21:59:15.248Z,85.80
2022-10-05T22:01:41.908Z,86.64
2022-10-05T22:04:08.371Z,86.21
2022-10-05T22:06:35.610Z,86.58
2022-10-05T22:09:03.305Z,87.53
2022-10-05T22:11:29.932Z,87.73
2022-10-05T22:13:56.426Z,88.34
2022-10-05T22:16:23.927Z,88.04
2022-10-05T22:18:50.423Z,88.24
2022-10-05T22:21:17.082Z,88.41
2022-10-05T22:23:45.071Z,87.96
2022-10-05T22:26:13.640Z,88.53
2022-10-05T22:28:40.945Z,88.72
2022-10-05T22:31:08.210Z,88.38
2022-10-05T22:33:34.693Z,88.48
2022-10-05T22:36:01.189Z,88.17
2022-10-05T22:38:28.515Z,89.79
2022-10-05T22:40:58.175Z,88.41
2022-10-05T22:43:24.888Z,88.53
2022-10-05T22:45:51.538Z,88.02
2022-10-05T22:48:18.257Z,89.06
2022-10-05T22:50:45.670Z,88.59
2022-10-05T22:53:12.637Z,87.73
2022-10-05T22:55:39.242Z,88.40
2022-10-05T22:58:05.773Z,88.21
2022-10-05T23:00:56.562Z,89.11
2022-10-05T23:03:19.086Z,89.46
2022-10-05T23:05:45.573Z,90.09
2022-10-05T23:08:12.036Z,89.18
2022-10-05T23:10:38.534Z,89.33
2022-10-05T23:13:05.006Z,90.18
2022-10-05T23:15:31.551Z,89.25
2022-10-05T23:17:58.195Z,90.20
2022-10-05T23:20:24.696Z,89.99
2022-10-05T23:22:51.311Z,89.98
2022-10-05T23:25:17.949Z,90.29
2022-10-05T23:27:44.792Z,91.05
2022-10-05T23:30:11.969Z,90.67
2022-10-05T23:32:39.670Z,90.69
2022-10-05T23:35:07.459Z,91.25
2022-10-05T23:37:39.998Z,91.34
2022-10-05T23:40:07.603Z,91.20
2022-10-05T23:42:34.886Z,90.68
2022-10-05T23:45:01.521Z,90.00
2022-10-05T23:47:28.161Z,89.87
2022-10-05T23:49:54.647Z,88.83
2022-10-05T23:52:21.283Z,88.17
2022-10-05T23:54:48.167Z,87.54
2022-10-05T23:57:18.189Z,88.33
2022-10-05T23:59:45.402Z,88.20
